createdAt,value
2023-04-20T00:00:49.852Z,10.13
2023-04-20T00:03:22.020Z,4.43
2023-04-20T00:05:51.721Z,2.55
2023-04-20T00:08:23.088Z,4.03
2023-04-20T00:10:52.715Z,5.95
2023-04-20T00:13:22.371Z,7.97
2023-04-20T00:15:51.994Z,5.53
2023-04-20T00:18:21.564Z,12.57
2023-04-20T00:20:51.199Z,7.22
2023-04-20T00:23:22.234Z,7.35
2023-04-20T00:25:52.518Z,12.13
2023-04-20T00:28:21.993Z,4.13
2023-04-20T00:30:51.757Z,5.60
2023-04-20T00:33:21.389Z,6.72
2023-04-20T00:35:51.285Z,3.85
2023-04-20T00:38:25.365Z,4.65
2023-04-20T00:40:55.208Z,4.45
2023-04-20T00:43:25.029Z,3.63
2023-04-20T00:45:54.653Z,6.22
2023-04-20T00:50:00.480Z,12.05
2023-04-20T00:52:30.092Z,4.63
2023-04-20T00:54:59.646Z,6.57
2023-04-20T00:57:30.592Z,9.32
2023-04-20T01:00:00.236Z,5.82
2023-04-20T01:02:29.941Z,6.05
2023-04-20T01:05:02.472Z,4.95
2023-04-20T01:07:31.962Z,5.50
2023-04-20T01:10:01.547Z,5.20
2023-04-20T01:12:31.076Z,4.80
2023-04-20T01:15:01.036Z,6.47
2023-04-20T01:17:30.561Z,6.05
2023-04-20T01:20:01.708Z,6.68
2023-04-20T01:22:32.805Z,5.75
2023-04-20T01:25:02.224Z,5.82
2023-04-20T01:27:31.768Z,8.65
2023-04-20T01:30:01.504Z,7.38
2023-04-20T01:32:32.029Z,6.95
2023-04-20T01:35:01.923Z,7.47
2023-04-20T01:37:33.087Z,6.50
2023-04-20T01:40:02.675Z,7.63
2023-04-20T01:42:32.369Z,7.40
2023-04-20T01:45:01.843Z,7.82
2023-04-20T01:47:35.386Z,10.23
2023-04-20T01:50:05.055Z,9.07
2023-04-20T01:52:36.132Z,9.10
2023-04-20T01:55:05.992Z,8.40
2023-04-20T01:57:35.398Z,11.75
2023-04-20T02:00:06.091Z,13.57
2023-04-20T02:02:35.867Z,10.07
2023-04-20T02:05:05.579Z,11.77
2023-04-20T02:07:36.647Z,9.77
2023-04-20T02:10:07.149Z,9.73
2023-04-20T02:12:36.836Z,11.07
2023-04-20T02:15:07.752Z,12.20
2023-04-20T02:17:38.060Z,10.80
2023-04-20T02:20:10.515Z,12.45
2023-04-20T02:22:41.746Z,9.65
2023-04-20T02:25:12.934Z,14.20
2023-04-20T02:27:42.658Z,10.40
2023-04-20T02:30:14.016Z,11.95
2023-04-20T02:32:43.832Z,19.98
2023-04-20T02:35:13.671Z,15.57
2023-04-20T02:37:45.757Z,13.10
2023-04-20T02:40:15.978Z,8.13
2023-04-20T02:42:45.546Z,12.30
2023-04-20T02:45:15.440Z,11.80
2023-04-20T02:47:45.116Z,13.88
2023-04-20T02:50:14.753Z,15.98
2023-04-20T02:52:45.870Z,21.02
2023-04-20T02:55:15.627Z,12.95
2023-04-20T02:57:45.130Z,13.60
2023-04-20T03:00:15.975Z,15.85
2023-04-20T03:02:45.630Z,16.67
2023-04-20T03:05:15.298Z,19.30
2023-04-20T03:07:46.819Z,21.02
2023-04-20T03:10:16.298Z,17.67
2023-04-20T03:12:46.067Z,19.85
2023-04-20T03:15:15.912Z,19.27
2023-04-20T03:17:45.529Z,14.88
2023-04-20T03:20:16.858Z,14.25
2023-04-20T03:22:47.937Z,20.02
2023-04-20T03:25:17.546Z,17.00
2023-04-20T03:27:48.951Z,14.05
2023-04-20T03:30:18.824Z,11.02
2023-04-20T03:32:48.318Z,16.02
2023-04-20T03:35:18.229Z,17.13
2023-04-20T03:37:49.214Z,14.70
2023-04-20T03:40:18.789Z,13.23
2023-04-20T03:42:48.479Z,12.88
2023-04-20T03:45:18.535Z,13.75
2023-04-20T03:51:00.496Z,11.27
2023-04-20T03:53:30.301Z,11.73
2023-04-20T03:55:59.966Z,14.75
2023-04-20T03:58:29.583Z,40.53
2023-04-20T04:01:04.460Z,67.18
2023-04-20T04:03:34.127Z,110.28
2023-04-20T04:06:06.154Z,112.78
2023-04-20T04:08:35.650Z,80.07
2023-04-20T04:11:05.184Z,20.60
2023-04-20T04:13:34.966Z,17.05
2023-04-20T04:16:04.767Z,19.55
2023-04-20T04:18:34.458Z,34.90
2023-04-20T04:21:06.906Z,40.28
2023-04-20T04:23:37.557Z,52.08
2023-04-20T04:26:07.208Z,126.85
2023-04-20T04:28:36.808Z,118.88
2023-04-20T04:31:07.311Z,57.38
2023-04-20T04:33:37.145Z,42.47
2023-04-20T04:36:09.109Z,34.05
2023-04-20T04:38:39.069Z,39.97
2023-04-20T04:41:08.756Z,40.28
2023-04-20T04:43:38.455Z,52.72
2023-04-20T04:46:11.522Z,62.03
2023-04-20T04:48:42.656Z,54.28
2023-04-20T04:51:13.550Z,36.58
2023-04-20T04:53:45.390Z,36.17
2023-04-20T04:56:15.000Z,26.13
2023-04-20T04:58:44.518Z,24.38
2023-04-20T05:01:14.950Z,19.70
2023-04-20T05:03:44.484Z,21.00
2023-04-20T05:06:15.588Z,20.42
2023-04-20T05:08:45.110Z,19.52
2023-04-20T05:11:14.642Z,20.90
2023-04-20T05:13:44.391Z,21.52
2023-04-20T05:16:13.966Z,17.30
2023-04-20T05:18:43.576Z,18.55
2023-04-20T05:21:14.608Z,14.90
2023-04-20T05:23:44.445Z,15.90
2023-04-20T05:26:13.907Z,14.40
2023-04-20T05:28:43.374Z,16.10
2023-04-20T05:31:12.970Z,15.40
2023-04-20T05:33:43.615Z,15.70
2023-04-20T05:36:14.468Z,15.98
2023-04-20T05:38:44.027Z,14.43
2023-04-20T05:41:13.405Z,20.02
2023-04-20T05:43:42.952Z,15.13
2023-04-20T05:46:12.450Z,15.18
2023-04-20T05:48:43.253Z,15.27
2023-04-20T05:51:14.334Z,15.65
2023-04-20T05:53:43.970Z,14.63
2023-04-20T05:56:14.059Z,13.30
2023-04-20T05:58:43.833Z,14.77
2023-04-20T06:01:13.429Z,14.38
2023-04-20T06:03:43.190Z,12.20
2023-04-20T06:06:16.134Z,13.48
2023-04-20T06:08:46.274Z,14.07
2023-04-20T06:11:15.903Z,13.60
2023-04-20T06:13:45.445Z,11.90
2023-04-20T06:16:14.942Z,11.23
2023-04-20T06:18:44.902Z,11.95
2023-04-20T06:21:16.381Z,13.32
2023-04-20T07:40:23.479Z,10.93
2023-04-20T07:42:53.049Z,9.90
2023-04-20T07:45:24.461Z,12.02
2023-04-20T07:47:55.658Z,9.98
2023-04-20T07:50:25.407Z,10.30
2023-04-20T07:52:54.956Z,10.30
2023-04-20T07:55:26.129Z,9.10
2023-04-20T07:57:55.716Z,9.05
2023-04-20T08:00:25.917Z,10.60
2023-04-20T08:02:55.621Z,11.50
2023-04-20T08:05:25.907Z,9.18
2023-04-20T08:07:55.489Z,9.00
2023-04-20T08:10:26.782Z,9.70
2023-04-20T08:12:56.452Z,8.05
2023-04-20T08:15:26.282Z,7.43
2023-04-20T08:17:56.054Z,9.63
2023-04-20T08:20:25.710Z,7.93
2023-04-20T08:22:55.463Z,7.43
2023-04-20T08:25:27.336Z,8.50
2023-04-20T08:27:57.163Z,8.82
2023-04-20T08:30:28.133Z,9.45
2023-04-20T08:32:57.584Z,11.98
2023-04-20T08:35:27.372Z,9.00
2023-04-20T08:37:57.024Z,9.82
2023-04-20T08:40:28.615Z,7.57
2023-04-20T08:42:59.826Z,8.20
2023-04-20T08:45:31.834Z,9.55
2023-04-20T08:48:03.451Z,8.73
2023-04-20T08:50:33.554Z,10.43
2023-04-20T08:53:03.698Z,7.38
2023-04-20T08:55:35.372Z,8.68
2023-04-20T08:58:04.817Z,8.50
2023-04-20T09:00:34.395Z,8.63
2023-04-20T09:03:04.091Z,8.90
2023-04-20T09:05:34.739Z,8.82
2023-04-20T09:08:05.593Z,8.73
2023-04-20T09:10:44.172Z,7.15
2023-04-20T09:13:24.732Z,8.45
2023-04-20T09:15:54.313Z,9.50
2023-04-20T09:18:24.061Z,9.15
2023-04-20T09:20:53.716Z,8.82
2023-04-20T09:23:23.807Z,8.27
2023-04-20T09:25:55.140Z,8.07
2023-04-20T09:28:24.674Z,10.10
2023-04-20T09:30:54.147Z,8.65
2023-04-20T09:33:30.766Z,16.58
2023-04-20T09:36:06.650Z,16.02
2023-04-20T09:38:36.609Z,11.98
2023-04-20T09:41:09.326Z,9.88
2023-04-20T09:43:38.882Z,10.55
2023-04-20T09:46:09.817Z,9.05
2023-04-20T09:51:03.665Z,13.55
2023-04-20T09:53:33.999Z,11.98
2023-04-20T09:56:04.975Z,11.40
2023-04-20T09:58:35.224Z,14.00
2023-04-20T10:01:04.814Z,11.90
2023-04-20T10:03:34.488Z,14.95
2023-04-20T10:06:06.708Z,10.27
2023-04-20T10:08:43.470Z,10.50
2023-04-20T10:11:13.171Z,11.30
2023-04-20T10:13:42.632Z,10.75
2023-04-20T10:16:21.144Z,13.23
2023-04-20T10:19:02.975Z,12.38
2023-04-20T10:21:35.232Z,10.45
2023-04-20T10:24:04.772Z,11.68
2023-04-20T10:26:41.970Z,12.35
2023-04-20T10:29:12.854Z,12.93
2023-04-20T10:31:43.363Z,9.45
2023-04-20T10:34:12.986Z,10.02
2023-04-20T10:36:44.161Z,10.65
2023-04-20T10:39:19.586Z,11.90
2023-04-20T10:41:55.807Z,12.27
2023-04-20T10:44:27.224Z,9.63
2023-04-20T10:46:57.986Z,11.15
2023-04-20T10:49:30.301Z,10.27
2023-04-20T10:52:01.711Z,9.10
2023-04-20T10:54:40.297Z,12.65
2023-04-20T10:57:10.158Z,11.82
2023-04-20T10:59:41.793Z,9.85
2023-04-20T11:02:13.110Z,14.52
2023-04-20T11:04:42.689Z,14.85
2023-04-20T11:07:14.654Z,10.82
2023-04-20T11:09:44.402Z,9.82
2023-04-20T11:12:15.035Z,23.60
2023-04-20T11:14:55.181Z,9.45
2023-04-20T11:17:34.900Z,9.10
2023-04-20T11:20:11.317Z,11.10
2023-04-20T11:22:44.418Z,13.13
2023-04-20T11:25:14.859Z,11.35
2023-04-20T11:27:44.366Z,9.52
2023-04-20T11:30:14.649Z,11.13
2023-04-20T11:32:44.327Z,9.85
2023-04-20T11:35:13.939Z,9.85
2023-04-20T11:37:54.055Z,10.82
2023-04-20T11:40:23.651Z,14.75
2023-04-20T11:42:53.101Z,11.98
2023-04-20T11:45:23.670Z,15.75
2023-04-20T11:47:55.277Z,12.70
2023-04-20T11:50:25.340Z,7.82
2023-04-20T11:52:56.199Z,7.65
2023-04-20T11:55:25.771Z,6.85
2023-04-20T11:57:55.349Z,7.68
2023-04-20T12:00:26.150Z,6.70
2023-04-20T12:02:55.673Z,7.18
2023-04-20T12:05:25.283Z,7.25
2023-04-20T12:07:56.569Z,6.50
2023-04-20T12:10:26.216Z,6.28
2023-04-20T12:12:57.030Z,7.53
2023-04-20T12:15:26.440Z,12.75
2023-04-20T12:17:56.075Z,7.68
2023-04-20T12:20:25.626Z,5.80
2023-04-20T12:22:58.529Z,5.47
2023-04-20T12:25:28.598Z,7.43
2023-04-20T12:27:57.930Z,5.22
2023-04-20T12:30:27.500Z,5.80
2023-04-20T12:32:57.075Z,6.75
2023-04-20T12:35:26.755Z,4.47
2023-04-20T12:37:57.604Z,5.57
2023-04-20T12:40:27.371Z,4.80
2023-04-20T12:42:56.945Z,4.35
2023-04-20T12:45:26.512Z,3.50
2023-04-20T15:51:00.157Z,9.63
2023-04-20T15:53:29.805Z,7.38
2023-04-20T15:55:59.314Z,12.77
2023-04-20T15:58:29.642Z,7.57
2023-04-20T16:00:59.158Z,6.20
2023-04-20T16:03:29.087Z,7.95
2023-04-20T16:06:00.114Z,8.60
2023-04-20T16:08:29.690Z,6.00
2023-04-20T16:10:59.405Z,7.47
2023-04-20T16:13:29.130Z,7.18
2023-04-20T16:15:59.057Z,7.38
2023-04-20T16:18:30.034Z,8.23
2023-04-20T16:21:01.036Z,7.40
2023-04-20T16:23:31.353Z,9.10
2023-04-20T16:26:01.148Z,15.15
2023-04-20T16:28:31.065Z,8.27
2023-04-20T16:31:01.406Z,11.10
2023-04-20T16:33:32.492Z,13.85
2023-04-20T16:36:03.613Z,7.85
2023-04-20T16:38:33.113Z,9.02
2023-04-20T16:41:02.619Z,7.70
2023-04-20T16:43:32.192Z,6.95
2023-04-20T16:46:01.633Z,8.05
2023-04-20T16:48:31.624Z,8.63
2023-04-20T16:51:02.574Z,9.02
2023-04-20T16:53:32.433Z,9.45
2023-04-20T16:56:02.072Z,9.05
2023-04-20T16:58:31.782Z,7.47
2023-04-20T17:01:01.318Z,8.80
2023-04-20T17:03:30.900Z,9.77
2023-04-20T17:06:07.578Z,9.50
2023-04-20T17:08:37.876Z,8.80
2023-04-20T17:11:08.592Z,8.75
2023-04-20T17:13:38.318Z,12.73
2023-04-20T17:16:08.119Z,9.02
2023-04-20T17:18:41.679Z,11.93
2023-04-20T17:21:12.935Z,9.65
2023-04-20T17:23:42.954Z,11.13
2023-04-20T17:26:12.587Z,15.05
2023-04-20T17:28:42.005Z,15.60
2023-04-20T17:31:12.055Z,10.25
2023-04-20T17:33:41.571Z,9.75
2023-04-20T17:36:12.734Z,8.60
2023-04-20T17:38:43.485Z,9.55
2023-04-20T17:41:12.955Z,9.85
2023-04-20T17:43:42.429Z,9.38
2023-04-20T17:46:12.314Z,8.27
2023-04-20T17:48:41.929Z,8.35
2023-04-20T17:51:15.720Z,9.15
2023-04-20T17:53:45.270Z,6.70
2023-04-20T17:56:14.869Z,9.13
2023-04-20T17:58:44.297Z,8.45
2023-04-20T18:01:13.756Z,8.48
2023-04-20T18:03:43.427Z,10.10
2023-04-20T18:06:14.455Z,7.68
2023-04-20T18:08:46.994Z,7.05
2023-04-20T18:11:16.732Z,8.15
2023-04-20T18:13:46.289Z,6.70
2023-04-20T18:16:15.798Z,8.10
2023-04-20T18:18:45.375Z,8.77
2023-04-20T18:21:16.293Z,8.32
2023-04-20T18:23:46.444Z,8.02
2023-04-20T18:26:18.578Z,8.75
2023-04-20T18:28:48.136Z,8.35
2023-04-20T18:31:17.628Z,6.97
2023-04-20T18:33:47.152Z,8.73
2023-04-20T18:36:19.100Z,7.88
2023-04-20T18:38:50.694Z,6.70
2023-04-20T18:41:22.712Z,9.35
2023-04-20T18:43:52.214Z,7.20
2023-04-20T18:46:21.677Z,9.45
2023-04-20T18:51:02.061Z,6.88
2023-04-20T18:53:31.635Z,7.60
2023-04-20T18:56:02.461Z,10.90
2023-04-20T18:58:32.065Z,8.02
2023-04-20T19:01:03.728Z,8.93
2023-04-20T19:03:33.502Z,8.40
2023-04-20T19:06:04.867Z,7.43
2023-04-20T19:08:34.444Z,9.77
2023-04-20T19:11:03.895Z,7.88
2023-04-20T19:13:33.614Z,8.32
2023-04-20T19:16:03.369Z,9.05
2023-04-20T19:18:33.081Z,9.48
2023-04-20T19:21:04.149Z,11.25
2023-04-20T19:23:33.600Z,8.07
2023-04-20T19:26:03.375Z,10.23
2023-04-20T19:28:32.978Z,8.55
2023-04-20T19:31:02.913Z,7.95
2023-04-20T19:33:32.893Z,8.57
2023-04-20T19:36:04.102Z,12.75
2023-04-20T19:38:35.084Z,11.48
2023-04-20T19:41:04.730Z,11.75
2023-04-20T19:43:35.451Z,11.13
2023-04-20T19:46:08.118Z,10.82
2023-04-20T19:51:08.520Z,14.38
2023-04-20T19:53:38.198Z,9.30
2023-04-20T19:56:07.880Z,11.18
2023-04-20T19:58:37.267Z,9.63
2023-04-20T20:01:06.967Z,9.98
2023-04-20T20:03:36.631Z,9.85
2023-04-20T20:06:08.034Z,11.23
2023-04-20T20:08:37.651Z,11.73
2023-04-20T20:11:07.172Z,10.05
2023-04-20T20:13:36.729Z,10.80
2023-04-20T20:16:06.822Z,9.75
2023-04-20T20:18:37.211Z,11.27
2023-04-20T20:21:08.210Z,12.20
2023-04-20T20:23:37.686Z,13.18
2023-04-20T20:26:07.548Z,13.63
2023-04-20T20:28:37.276Z,11.68
2023-04-20T20:31:06.806Z,12.60
2023-04-20T20:33:36.308Z,11.30
2023-04-20T20:36:07.634Z,12.75
2023-04-20T20:38:37.285Z,15.77
2023-04-20T20:41:06.877Z,13.98
2023-04-20T20:43:36.525Z,12.75
2023-04-20T20:46:06.132Z,11.60
2023-04-20T20:48:35.606Z,12.10
2023-04-20T20:51:05.145Z,11.02
2023-04-20T20:53:35.971Z,10.13
2023-04-20T20:56:05.704Z,10.43
2023-04-20T20:58:35.112Z,9.65
2023-04-20T21:01:04.591Z,8.90
2023-04-20T21:03:34.264Z,9.88
2023-04-20T21:06:03.908Z,10.65
2023-04-20T21:08:34.927Z,11.02
2023-04-20T21:11:04.682Z,9.07
2023-04-20T21:13:34.151Z,9.38
2023-04-20T21:16:03.782Z,9.98
2023-04-20T21:18:34.307Z,11.05
2023-04-20T21:21:03.787Z,10.02
2023-04-20T21:23:34.567Z,8.32
2023-04-20T21:26:04.105Z,10.70
2023-04-20T21:28:33.808Z,11.27
2023-04-20T21:31:03.524Z,10.45
2023-04-20T21:33:34.772Z,9.30
2023-04-20T21:36:04.354Z,9.73
2023-04-20T21:38:35.232Z,11.45
2023-04-20T21:41:04.913Z,8.45
2023-04-20T21:43:34.487Z,10.50
2023-04-20T21:46:04.114Z,10.73
2023-04-20T21:50:59.748Z,8.68
2023-04-20T21:53:29.388Z,9.57
2023-04-20T21:55:58.888Z,9.90
2023-04-20T21:58:28.415Z,9.48
2023-04-20T22:00:58.226Z,11.57
2023-04-20T22:03:29.492Z,7.93
2023-04-20T22:06:01.687Z,9.15
2023-04-20T22:08:31.385Z,6.53
2023-04-20T22:11:00.816Z,8.15
2023-04-20T22:13:30.347Z,10.07
2023-04-20T22:15:59.790Z,9.32
2023-04-20T22:18:29.273Z,7.10
2023-04-20T22:21:00.484Z,9.70
2023-04-20T22:23:30.135Z,8.15
2023-04-20T22:25:59.633Z,6.75
2023-04-20T22:28:29.224Z,8.30
2023-04-20T22:30:58.913Z,7.22
2023-04-20T22:33:28.594Z,6.05
2023-04-20T22:35:59.608Z,7.25
2023-04-20T22:38:29.205Z,8.02
2023-04-20T22:40:58.804Z,7.03
2023-04-20T22:43:28.596Z,7.88
2023-04-20T22:45:59.798Z,10.80
2023-04-20T22:48:29.737Z,9.35
2023-04-20T22:51:01.181Z,7.82
2023-04-20T22:53:30.851Z,6.93
2023-04-20T22:56:06.695Z,6.97
2023-04-20T22:58:37.157Z,8.52
2023-04-20T23:01:06.912Z,5.93
2023-04-20T23:03:36.955Z,6.93
2023-04-20T23:06:08.797Z,6.60
2023-04-20T23:08:39.985Z,5.85
2023-04-20T23:11:09.590Z,6.55
2023-04-20T23:13:39.186Z,7.18
2023-04-20T23:16:09.407Z,10.68
2023-04-20T23:18:38.984Z,7.43
2023-04-20T23:21:09.971Z,7.35
2023-04-20T23:23:39.467Z,5.65
2023-04-20T23:26:09.078Z,5.78
2023-04-20T23:28:39.325Z,8.70
2023-04-20T23:31:08.826Z,75.07
2023-04-20T23:33:38.246Z,42.03
2023-04-20T23:36:10.208Z,30.00
2023-04-20T23:38:39.852Z,14.63
2023-04-20T23:41:11.660Z,6.93
2023-04-20T23:43:41.588Z,10.82
2023-04-20T23:46:12.778Z,14.00
2023-04-20T23:48:42.382Z,9.35
2023-04-20T23:51:13.652Z,6.78
2023-04-20T23:53:43.088Z,5.15
2023-04-20T23:56:13.044Z,5.70
2023-04-20T23:58:42.508Z,8.10
